Time;durP1;ratioP1;P1;durP2;ratioP2;P2;SDS_P1;SDS_P2;PMS_P1;PMS_P2;Temp;Humidity;BMP_temperature;BMP_pressure;BME280_temperature;BME280_humidity;BME280_pressure;Samples;Min_cycle;Max_cycle;Signal;HPM_P1;HPM_P2
2021/03/02 00:03:08;;;;;;;102.67;40.90;;;;;;;1.01;82.60;102553.38;5102469;56;1138873;-75
2021/03/02 00:08:18;;;;;;;77.27;37.00;;;;;;;1.03;82.78;102555.54;5104701;57;1141179;-76
2021/03/02 00:13:25;;;;;;;93.67;40.73;;;;;;;1.03;83.23;102557.28;5104724;57;1139227;-75
2021/03/02 00:18:40;;;;;;;85.40;37.63;;;;;;;1.02;83.24;102558.16;5104695;57;1139357;-77
2021/03/02 00:23:50;;;;;;;83.00;35.40;;;;;;;1.02;83.51;102556.84;5104517;57;1138455;-75
2021/03/02 00:29:00;;;;;;;97.72;39.65;;;;;;;0.99;83.76;102562.07;5120043;57;1138958;-77
2021/03/02 00:34:06;;;;;;;77.00;34.95;;;;;;;1.01;83.89;102560.33;5104192;57;1138440;-76
2021/03/02 00:39:11;;;;;;;96.22;40.43;;;;;;;1.02;84.10;102555.55;5104670;57;1138448;-77
2021/03/02 00:44:17;;;;;;;85.17;41.10;;;;;;;1.02;84.10;102552.94;5104273;57;1138486;-77
2021/03/02 00:49:22;;;;;;;68.23;29.00;;;;;;;1.07;84.08;102549.02;5104805;57;1138366;-76
2021/03/02 00:54:28;;;;;;;96.83;42.57;;;;;;;1.05;84.15;102541.20;5104198;57;1138488;-76
2021/03/02 00:59:33;;;;;;;83.00;37.43;;;;;;;1.02;84.09;102547.30;5103773;57;1138503;-75
2021/03/02 01:04:40;;;;;;;87.77;40.93;;;;;;;1.06;84.11;102544.23;5103917;57;1138341;-75
2021/03/02 01:09:46;;;;;;;80.23;38.40;;;;;;;1.11;84.17;102546.80;5101879;56;1138629;-75
2021/03/02 01:14:52;;;;;;;80.30;36.37;;;;;;;1.09;84.19;102538.98;5102462;56;1138358;-76
2021/03/02 01:19:58;;;;;;;94.03;42.97;;;;;;;1.13;84.31;102541.14;5103263;57;1138788;-78
2021/03/02 01:25:05;;;;;;;86.32;40.90;;;;;;;1.17;84.13;102542.42;5103006;57;1138357;-76
2021/03/02 01:30:14;;;;;;;101.33;45.03;;;;;;;1.26;83.87;102548.00;5103109;57;1138509;-73
2021/03/02 01:35:19;;;;;;;91.37;44.57;;;;;;;1.29;84.02;102542.77;5102705;57;1140644;-74
2021/03/02 01:40:25;;;;;;;82.37;40.40;;;;;;;1.34;84.23;102550.13;5102905;57;1138548;-76
2021/03/02 01:45:31;;;;;;;84.27;39.80;;;;;;;1.41;83.92;102551.80;5102979;56;1138544;-76
2021/03/02 01:50:37;;;;;;;87.17;43.23;;;;;;;1.44;83.39;102545.27;5102908;57;1138567;-74
2021/03/02 01:55:42;;;;;;;94.10;44.30;;;;;;;1.33;82.83;102528.41;5102860;57;1138765;-77
2021/03/02 02:00:50;;;;;;;93.20;42.50;;;;;;;1.16;82.62;102528.97;5102547;57;1138569;-77
2021/03/02 02:06:06;;;;;;;91.10;42.67;;;;;;;1.09;82.33;102527.69;5102787;57;1138803;-76
2021/03/02 02:11:48;;;;;;;108.15;49.55;;;;;;;1.00;82.51;102521.68;5102966;57;1139089;-75
2021/03/02 02:16:57;;;;;;;94.67;43.57;;;;;;;0.97;82.75;102524.30;5102630;56;1140445;-75
2021/03/02 02:22:25;;;;;;;103.40;46.00;;;;;;;0.99;83.00;102525.16;5103015;57;1138421;-76
2021/03/02 02:27:33;;;;;;;121.13;51.57;;;;;;;1.00;83.09;102505.18;4957212;59;1140713;-74
2021/03/02 02:32:42;;;;;;;109.60;48.53;;;;;;;1.06;83.30;102507.77;4957293;59;1140677;-76
2021/03/02 02:37:50;;;;;;;107.97;48.23;;;;;;;1.11;82.87;102507.70;4957148;59;1140667;-76
2021/03/02 02:42:57;;;;;;;105.47;46.00;;;;;;;0.99;82.11;102503.45;4957226;59;1141101;-76
2021/03/02 02:48:03;;;;;;;89.77;43.13;;;;;;;0.86;82.15;102490.08;4957118;58;1150272;-75
2021/03/02 02:53:10;;;;;;;98.33;40.60;;;;;;;0.70;82.08;102492.77;4957291;59;1138471;-75
2021/03/02 02:58:19;;;;;;;94.28;43.98;;;;;;;0.59;82.13;102481.98;4957476;59;1138967;-76
2021/03/02 03:03:28;;;;;;;91.07;44.10;;;;;;;0.50;82.33;102480.27;5080987;57;1139125;-76
2021/03/02 03:08:35;;;;;;;78.93;32.50;;;;;;;0.44;82.75;102477.72;5102438;56;1139123;-76
2021/03/02 03:13:44;;;;;;;91.40;41.67;;;;;;;0.38;82.89;102480.77;5102586;57;1139122;-75
2021/03/02 03:19:00;;;;;;;85.87;40.23;;;;;;;0.32;83.01;102476.01;5102538;57;1139068;-76
2021/03/02 03:24:07;;;;;;;95.50;42.33;;;;;;;0.27;83.16;102468.68;5102817;56;1138965;-75
2021/03/02 03:29:13;;;;;;;98.37;46.10;;;;;;;0.24;83.38;102460.02;5102686;57;1138860;-76
2021/03/02 03:34:19;;;;;;;70.03;31.77;;;;;;;0.22;83.39;102458.72;5102680;57;1138847;-75
2021/03/02 03:39:25;;;;;;;60.33;27.30;;;;;;;0.25;83.49;102452.64;5102144;57;1138604;-74
2021/03/02 03:44:30;;;;;;;94.80;39.90;;;;;;;0.19;83.99;102450.05;5102419;57;1138524;-77
2021/03/02 03:49:35;;;;;;;83.93;36.57;;;;;;;0.11;83.92;102451.39;5102503;57;1138591;-76
2021/03/02 03:54:42;;;;;;;103.13;45.53;;;;;;;0.09;84.23;102457.47;5102684;57;1138518;-74
2021/03/02 03:59:48;;;;;;;87.10;39.60;;;;;;;0.06;84.10;102453.14;5102238;57;1140742;-75
2021/03/02 04:04:54;;;;;;;70.50;32.23;;;;;;;0.15;84.50;102479.14;5102697;57;1138665;-75
2021/03/02 04:10:06;;;;;;;94.05;46.95;;;;;;;0.17;84.73;102492.11;5117706;56;1138908;-76
2021/03/02 04:15:15;;;;;;;97.67;44.80;;;;;;;0.26;84.78;102494.27;5102535;57;1138385;-76
2021/03/02 04:20:22;;;;;;;107.47;48.43;;;;;;;0.39;84.82;102499.42;5102397;57;1138464;-75
2021/03/02 04:25:28;;;;;;;119.50;47.83;;;;;;;0.44;84.73;102503.75;5102404;57;1140688;-74
2021/03/02 04:30:34;;;;;;;100.63;43.57;;;;;;;0.46;84.51;102499.84;5102078;57;1140416;-76
2021/03/02 04:35:39;;;;;;;72.23;34.60;;;;;;;0.46;84.42;102500.67;5101883;57;1140472;-75
2021/03/02 04:40:45;;;;;;;59.73;26.23;;;;;;;0.43;84.52;102507.22;5102467;57;1138416;-76
2021/03/02 04:45:51;;;;;;;106.13;41.33;;;;;;;0.33;84.67;102505.07;5103257;57;1138349;-75
2021/03/02 04:50:57;;;;;;;69.43;30.83;;;;;;;0.23;84.58;102492.11;5102884;57;1140546;-76
2021/03/02 04:56:03;;;;;;;96.67;34.53;;;;;;;0.20;84.82;102494.71;5081818;56;1205983;-75
2021/03/02 05:01:08;;;;;;;95.93;41.80;;;;;;;0.14;84.94;102490.41;5103040;57;1138376;-74
2021/03/02 05:06:13;;;;;;;90.43;37.43;;;;;;;0.09;84.87;102482.18;5103437;56;1138404;-76
2021/03/02 05:11:19;;;;;;;76.63;27.10;;;;;;;0.10;85.08;102486.08;5103154;57;1138470;-76
2021/03/02 05:16:25;;;;;;;98.03;40.97;;;;;;;0.07;85.30;102477.41;5102882;57;1138755;-75
2021/03/02 05:21:30;;;;;;;87.07;36.77;;;;;;;0.03;85.22;102478.28;5103048;57;1138395;-76
2021/03/02 05:26:36;;;;;;;87.10;37.23;;;;;;;0.02;85.19;102479.15;5102889;57;1138489;-75
2021/03/02 05:31:41;;;;;;;86.37;40.47;;;;;;;0.02;85.42;102485.66;5102877;57;1138934;-75
2021/03/02 05:36:47;;;;;;;108.13;38.17;;;;;;;0.07;85.37;102485.22;5102786;57;1138922;-77
2021/03/02 05:41:53;;;;;;;83.73;34.67;;;;;;;0.05;85.25;102485.66;5102785;57;1140941;-75
2021/03/02 05:46:59;;;;;;;97.03;42.03;;;;;;;0.06;85.23;102497.36;5102774;57;1138872;-76
2021/03/02 05:52:06;;;;;;;75.37;33.33;;;;;;;0.04;85.28;102498.22;5102300;56;1138852;-74
2021/03/02 05:57:12;;;;;;;112.52;52.00;;;;;;;0.02;85.51;102483.05;5102277;57;1138937;-77
2021/03/02 06:02:18;;;;;;;375.82;218.75;;;;;;;0.03;85.52;102492.59;5102510;57;1141007;-77
2021/03/02 06:07:24;;;;;;;373.50;240.77;;;;;;;0.02;85.58;102483.92;5065265;57;1142967;-77
2021/03/02 06:12:29;;;;;;;101.27;55.73;;;;;;;0.08;85.63;102494.32;5017045;58;1142650;-76
2021/03/02 06:17:35;;;;;;;96.17;43.63;;;;;;;0.13;85.55;102493.88;4981221;58;1140735;-77
2021/03/02 06:22:41;;;;;;;77.60;38.07;;;;;;;0.14;85.39;102493.02;4977174;58;1138483;-77
2021/03/02 06:27:49;;;;;;;94.37;37.13;;;;;;;0.11;85.49;102485.22;4977073;58;1138564;-77
2021/03/02 06:32:56;;;;;;;74.90;29.90;;;;;;;0.10;85.65;102491.72;5017929;57;1138652;-76
2021/03/02 06:38:05;;;;;;;71.42;29.57;;;;;;;0.07;86.33;102491.72;5046262;57;1138914;-77
2021/03/02 06:43:32;;;;;;;66.40;25.97;;;;;;;0.11;86.36;102495.62;5009656;57;1138969;-76
2021/03/02 06:48:59;;;;;;;93.77;39.83;;;;;;;0.18;86.67;102493.41;5013990;57;1138834;-74
2021/03/02 06:54:25;;;;;;;101.07;44.33;;;;;;;0.29;86.72;102502.08;5018663;57;1138980;-76
2021/03/02 06:59:23;;;;;;;98.07;43.03;;;;;;;0.47;86.83;102507.62;5013420;57;1141049;-75
2021/03/02 07:04:33;;;;;;;93.53;41.47;;;;;;;0.55;86.91;102501.95;5014915;57;1138511;-77
2021/03/02 07:09:41;;;;;;;80.10;34.33;;;;;;;0.63;86.72;102507.11;5011691;57;1138563;-76
2021/03/02 07:14:48;;;;;;;89.50;39.53;;;;;;;0.69;86.73;102497.98;5009328;58;1138871;-76
2021/03/02 07:19:56;;;;;;;87.63;38.97;;;;;;;0.73;87.01;102498.84;4947604;58;1138399;-76
2021/03/02 07:25:07;;;;;;;76.57;34.65;;;;;;;0.83;86.87;102495.30;4865959;59;1138598;-76
2021/03/02 07:30:14;;;;;;;82.60;35.58;;;;;;;0.95;87.13;102498.69;4768655;60;1138843;-77
2021/03/02 07:35:22;;;;;;;80.60;37.70;;;;;;;1.13;87.42;102491.19;4865907;59;1138601;-76
2021/03/02 07:40:28;;;;;;;63.00;28.73;;;;;;;1.35;87.61;102496.69;4865522;59;1138614;-77
2021/03/02 07:45:33;;;;;;;51.70;22.73;;;;;;;1.57;87.82;102504.31;4865962;59;1139185;-77
2021/03/02 07:50:39;;;;;;;128.87;62.57;;;;;;;1.80;87.98;102507.59;4865637;59;1138654;-77
2021/03/02 07:55:46;;;;;;;55.08;25.10;;;;;;;2.04;87.78;102512.98;4929276;58;1140752;-77
2021/03/02 08:00:52;;;;;;;77.00;35.47;;;;;;;2.26;88.06;102509.72;4975842;58;1138523;-76
2021/03/02 08:06:01;;;;;;;49.30;20.87;;;;;;;2.50;88.35;102504.63;4969407;58;1138894;-77
2021/03/02 08:11:32;;;;;;;55.50;24.23;;;;;;;2.71;88.50;102492.61;5000765;58;1139415;-78
2021/03/02 08:17:01;;;;;;;48.23;23.83;;;;;;;2.83;88.47;102493.73;4862718;59;1139117;-77
2021/03/02 08:22:26;;;;;;;48.70;21.83;;;;;;;3.07;88.39;102493.38;5004914;57;1138921;-78
2021/03/02 08:27:46;;;;;;;46.95;23.83;;;;;;;3.23;88.26;102503.59;5018446;56;1138723;-78
2021/03/02 08:32:54;;;;;;;61.60;28.47;;;;;;;3.37;88.44;102493.34;4958381;58;1138440;-77
2021/03/02 08:38:04;;;;;;;101.43;37.77;;;;;;;3.61;88.58;102490.77;4958377;58;1138506;-76
2021/03/02 08:43:26;;;;;;;64.85;26.68;;;;;;;3.87;88.40;102498.16;4958549;58;1140649;-77
2021/03/02 08:48:35;;;;;;;58.97;26.10;;;;;;;4.10;88.00;102497.73;4995154;57;1139019;-76
2021/03/02 08:53:47;;;;;;;55.07;21.90;;;;;;;4.29;87.60;102490.36;5039523;57;1138349;-77
2021/03/02 08:59:04;;;;;;;44.50;20.77;;;;;;;4.51;87.65;102491.66;5039146;57;1139180;-76
2021/03/02 09:04:19;;;;;;;48.42;23.45;;;;;;;4.69;87.38;102488.66;5038190;56;1138694;-76
2021/03/02 09:09:26;;;;;;;47.43;20.57;;;;;;;4.97;87.31;102498.52;5038940;57;1141302;-76
2021/03/02 09:14:34;;;;;;;39.93;18.40;;;;;;;5.19;87.15;102505.88;5036143;57;1140623;-76
2021/03/02 09:19:42;;;;;;;50.93;21.93;;;;;;;5.54;86.67;102510.25;5012886;58;1141056;-76
2021/03/02 09:24:57;;;;;;;47.00;20.60;;;;;;;5.72;85.36;102510.69;5001615;58;1140619;-75
2021/03/02 09:30:09;;;;;;;37.23;17.80;;;;;;;5.83;83.85;102509.50;4954465;58;1140709;-76
2021/03/02 09:35:16;;;;;;;38.28;19.85;;;;;;;5.96;83.13;102518.81;5031761;57;1140988;-76
2021/03/02 09:40:21;;;;;;;42.03;21.60;;;;;;;6.08;82.95;102516.33;5048602;57;1141001;-77
2021/03/02 09:45:27;;;;;;;41.13;21.10;;;;;;;6.18;82.97;102520.88;5048666;57;1141339;-76
2021/03/02 09:50:40;;;;;;;38.90;19.27;;;;;;;6.35;83.04;102519.95;4943675;58;1140971;-86
2021/03/02 09:55:47;;;;;;;47.05;17.52;;;;;;;6.50;81.84;102515.58;4927350;58;1141256;-84
2021/03/02 10:01:03;;;;;;;31.90;16.37;;;;;;;6.69;81.48;102517.23;4927389;58;1141166;-83
2021/03/02 10:06:09;;;;;;;37.67;18.10;;;;;;;6.81;80.93;102512.91;4923936;58;1141407;-82
2021/03/02 10:11:19;;;;;;;40.85;19.45;;;;;;;6.91;80.65;102505.14;4939791;58;1141009;-81
2021/03/02 10:16:35;;;;;;;50.88;24.87;;;;;;;7.12;80.81;102508.88;4996683;58;1141196;-80
2021/03/02 10:21:51;;;;;;;40.00;20.03;;;;;;;7.39;81.26;102508.45;4995381;57;1140661;-78
2021/03/02 10:27:02;;;;;;;36.13;14.90;;;;;;;7.64;80.07;102511.12;4992320;58;1140585;-85
2021/03/02 10:32:09;;;;;;;38.93;17.13;;;;;;;7.87;78.79;102520.44;4976920;58;1140666;-83
2021/03/02 10:37:15;;;;;;;25.93;14.13;;;;;;;8.06;78.67;102516.70;5020724;57;1140612;-82
2021/03/02 10:42:20;;;;;;;37.53;15.78;;;;;;;8.31;76.28;102516.68;5006534;57;1141473;-80
2021/03/02 10:47:26;;;;;;;25.63;12.60;;;;;;;8.51;76.13;102506.77;5018905;57;1140432;-78
2021/03/02 10:52:31;;;;;;;22.87;13.10;;;;;;;8.79;73.62;102500.84;5019064;57;1140657;-75
2021/03/02 10:57:37;;;;;;;28.70;16.90;;;;;;;8.89;73.14;102494.73;5035817;57;1140681;-75
2021/03/02 11:02:42;;;;;;;308.97;246.60;;;;;;;9.10;74.49;102482.02;4941268;58;1141163;-76
2021/03/02 11:07:48;;;;;;;23.90;11.40;;;;;;;9.28;74.30;102481.28;4913848;58;1144828;-76
2021/03/02 11:12:53;;;;;;;35.93;14.67;;;;;;;9.44;71.72;102482.38;4978607;57;1140767;-75
2021/03/02 11:17:59;;;;;;;21.93;11.87;;;;;;;9.50;70.28;102474.63;4915593;58;1140901;-76
2021/03/02 11:23:05;;;;;;;25.40;15.20;;;;;;;9.69;69.40;102473.40;4858245;58;1140811;-76
2021/03/02 11:28:12;;;;;;;23.23;11.10;;;;;;;9.87;69.59;102468.19;4931016;57;1140745;-79
2021/03/02 11:33:18;;;;;;;20.97;12.47;;;;;;;9.98;68.67;102459.77;4931203;58;1141078;-75
2021/03/02 11:38:24;;;;;;;25.35;14.80;;;;;;;10.16;65.92;102452.81;4931215;58;1141264;-79
2021/03/02 11:43:31;;;;;;;42.47;18.63;;;;;;;10.29;67.09;102438.14;4930925;58;1143582;-78
2021/03/02 11:48:37;;;;;;;33.57;14.83;;;;;;;10.49;65.69;102443.37;4952490;58;1143318;-81
2021/03/02 11:53:42;;;;;;;48.20;18.67;;;;;;;10.61;66.71;102444.58;4976673;58;1143308;-79
2021/03/02 11:58:48;;;;;;;29.60;14.33;;;;;;;10.89;65.85;102440.15;4976296;58;1143030;-77
2021/03/02 12:03:53;;;;;;;36.03;18.90;;;;;;;11.16;66.90;102427.34;4976173;58;1143233;-79
2021/03/02 12:08:58;;;;;;;133.90;73.97;;;;;;;11.16;66.90;102427.34;4976721;58;1143089;-80
2021/03/02 12:14:04;;;;;;;21.85;12.45;;;;;;;11.22;62.53;102420.42;4975947;58;1145207;-76
2021/03/02 12:19:09;;;;;;;23.10;12.87;;;;;;;11.37;62.20;102416.15;4957226;58;1143072;-78
2021/03/02 12:24:15;;;;;;;26.17;14.10;;;;;;;11.57;63.40;102414.67;4975164;58;1143085;-77
2021/03/02 12:29:21;;;;;;;19.12;9.93;;;;;;;11.73;63.41;102402.81;4975543;58;1143086;-80
2021/03/02 12:34:26;;;;;;;18.45;10.88;;;;;;;11.84;58.43;102406.64;5006862;58;1141019;-80
2021/03/02 12:39:32;;;;;;;34.63;14.13;;;;;;;11.87;60.14;102402.97;5028601;57;1143107;-83
2021/03/02 12:44:38;;;;;;;42.90;17.15;;;;;;;12.00;57.33;102399.19;5029520;57;1143619;-84
2021/03/02 12:49:43;;;;;;;19.73;10.40;;;;;;;12.09;58.76;102390.26;5030967;57;1143485;-80
2021/03/02 12:54:48;;;;;;;24.53;14.43;;;;;;;12.12;57.36;102390.09;5051611;57;1143653;-81
2021/03/02 12:59:54;;;;;;;22.97;11.17;;;;;;;12.27;59.93;102385.28;5051640;56;1143067;-77
2021/03/02 13:05:00;;;;;;;21.57;11.27;;;;;;;12.50;59.16;102392.45;5052238;57;1143090;-81
2021/03/02 13:10:07;;;;;;;24.03;13.77;;;;;;;12.59;57.98;102393.25;5090863;57;1143086;-79
2021/03/02 13:15:14;;;;;;;19.17;10.93;;;;;;;12.71;58.27;102388.57;5087587;57;1143205;-83
2021/03/02 13:20:22;;;;;;;23.52;12.15;;;;;;;12.74;56.68;102387.55;4986997;57;1143071;-80
2021/03/02 13:25:27;;;;;;;31.07;13.85;;;;;;;12.78;57.66;102381.12;4989978;58;1143102;-81
2021/03/02 13:30:33;;;;;;;24.37;15.53;;;;;;;12.85;58.90;102373.17;4877245;58;1143018;-83
2021/03/02 13:35:39;;;;;;;27.33;15.37;;;;;;;13.03;57.92;102380.94;4866722;58;1143073;-79
2021/03/02 13:40:51;;;;;;;24.87;12.93;;;;;;;13.12;57.50;102386.20;4866631;59;1143040;-79
2021/03/02 13:45:57;;;;;;;28.43;13.60;;;;;;;13.24;57.70;102384.66;4866521;59;1143349;-83
2021/03/02 13:51:02;;;;;;;43.47;19.13;;;;;;;13.34;58.29;102384.48;4944994;58;1143061;-81
2021/03/02 13:56:08;;;;;;;23.40;12.80;;;;;;;13.45;56.63;102379.37;4985775;58;1143336;-80
2021/03/02 17:20:13;;;;;;;65.57;32.23;;;;;;;10.83;59.31;102355.30;5232986;54;46240;-75
2021/03/02 17:25:19;;;;;;;84.45;38.63;;;;;;;10.67;59.28;102356.98;5025517;57;1138578;-76
2021/03/02 17:30:25;;;;;;;72.60;35.67;;;;;;;10.52;59.43;102364.33;4985367;57;1152473;-78
2021/03/02 17:35:31;;;;;;;100.63;39.50;;;;;;;10.36;59.54;102356.27;4983552;57;1142987;-77
2021/03/02 17:40:37;;;;;;;118.33;46.67;;;;;;;10.22;59.58;102356.06;4983455;58;1145219;-87
2021/03/02 17:45:43;;;;;;;102.33;42.57;;;;;;;10.07;59.82;102357.61;4983475;58;1145471;-85
2021/03/02 17:50:48;;;;;;;95.50;43.07;;;;;;;9.90;59.90;102359.30;5018108;56;1143375;-83
2021/03/02 17:55:54;;;;;;;150.97;44.80;;;;;;;9.68;59.85;102366.00;5165104;56;1139009;-81
2021/03/02 18:00:59;;;;;;;116.03;44.57;;;;;;;9.40;60.05;102370.31;5069841;56;1141009;-80
2021/03/02 18:06:05;;;;;;;80.73;37.10;;;;;;;9.17;60.67;102373.92;5092569;56;1140896;-84
2021/03/02 18:11:11;;;;;;;78.70;37.90;;;;;;;9.07;60.87;102381.84;5143657;56;1138927;-85
2021/03/02 18:16:16;;;;;;;57.23;30.03;;;;;;;8.86;60.73;102371.69;5178678;56;1146350;-79
2021/03/02 18:21:21;;;;;;;53.63;26.10;;;;;;;8.73;61.25;102373.98;5178551;56;1138887;-79
2021/03/02 18:26:27;;;;;;;57.43;27.95;;;;;;;8.61;61.29;102370.52;5177949;56;1139341;-79
2021/03/02 18:31:33;;;;;;;54.93;26.53;;;;;;;8.50;61.44;102371.41;5194879;55;1139466;-78
2021/03/02 18:36:40;;;;;;;70.23;29.77;;;;;;;8.37;61.67;102378.09;5147607;55;1138858;-74
2021/03/02 18:41:48;;;;;;;77.73;33.93;;;;;;;8.26;62.02;102379.77;5114944;55;1139352;-76
2021/03/02 18:46:53;;;;;;;85.17;34.83;;;;;;;8.18;62.03;102378.34;5135801;55;1138896;-82
2021/03/02 18:51:59;;;;;;;101.87;38.53;;;;;;;8.07;62.02;102371.72;5175508;56;1138933;-81
2021/03/02 18:57:08;;;;;;;127.80;52.93;;;;;;;7.96;62.16;102373.01;5162916;56;1141013;-77
2021/03/02 19:02:12;;;;;;;161.33;61.03;;;;;;;7.85;62.28;102374.73;5114308;56;1141172;-80
2021/03/02 19:07:18;;;;;;;211.40;81.53;;;;;;;7.74;62.64;102372.95;5134660;56;1190742;-79
2021/03/02 19:12:24;;;;;;;295.50;100.25;;;;;;;7.62;62.29;102375.58;5196001;55;1143281;-84
2021/03/02 19:17:32;;;;;;;349.05;131.22;;;;;;;7.59;62.58;102377.00;5242873;55;1145175;-80
2021/03/02 19:22:37;;;;;;;221.43;87.13;;;;;;;7.55;62.50;102379.33;5242741;55;1145101;-78
2021/03/02 19:27:42;;;;;;;257.43;100.27;;;;;;;7.23;61.83;102379.13;5243189;55;1141029;-81
2021/03/02 19:32:48;;;;;;;300.93;126.10;;;;;;;6.99;62.65;102391.80;5228386;55;1143409;-81
2021/03/02 19:37:53;;;;;;;466.23;205.77;;;;;;;6.92;62.98;102386.31;5155463;56;1143307;-80
2021/03/02 19:42:59;;;;;;;517.10;250.70;;;;;;;6.90;63.57;102389.45;5145251;56;1142999;-75
2021/03/02 19:48:06;;;;;;;536.50;210.27;;;;;;;6.87;63.33;102386.49;5102156;56;1143089;-77
2021/03/02 19:53:11;;;;;;;481.70;223.40;;;;;;;6.80;63.36;102387.58;5235540;55;1143418;-76
2021/03/02 19:58:18;;;;;;;429.20;196.68;;;;;;;6.72;63.22;102386.98;5218875;55;1143293;-79
2021/03/02 20:03:24;;;;;;;238.57;106.67;;;;;;;6.43;62.72;102386.55;5160712;55;1143279;-78
2021/03/02 20:08:29;;;;;;;366.38;158.12;;;;;;;6.00;62.76;102377.31;5176031;55;1142991;-78
2021/03/02 20:13:35;;;;;;;311.05;132.90;;;;;;;5.85;63.64;102380.34;5223687;55;1145122;-75
2021/03/02 20:18:40;;;;;;;412.67;191.27;;;;;;;5.89;64.52;102383.79;5246778;55;1144671;-77
2021/03/02 20:23:46;;;;;;;357.57;155.90;;;;;;;5.99;64.50;102380.84;5229981;55;1142979;-77
2021/03/02 20:28:51;;;;;;;401.83;177.90;;;;;;;5.86;64.21;102378.13;5153888;55;1142605;-75
2021/03/02 20:33:57;;;;;;;417.67;199.67;;;;;;;5.80;64.10;102387.97;5076219;56;1142553;-79
2021/03/02 20:39:04;;;;;;;381.13;177.93;;;;;;;5.60;64.29;102378.00;5109833;56;1142495;-79
2021/03/02 20:44:10;;;;;;;362.30;157.20;;;;;;;5.54;64.82;102376.39;5160821;56;1142647;-74
2021/03/02 20:49:15;;;;;;;355.35;159.72;;;;;;;5.48;64.35;102379.66;5161241;56;1142717;-76
2021/03/02 20:54:21;;;;;;;327.50;151.87;;;;;;;5.36;64.50;102383.44;5161246;56;1143240;-78
2021/03/02 20:59:26;;;;;;;299.58;124.90;;;;;;;5.29;64.72;102382.76;5160987;56;1142785;-75
2021/03/02 21:04:32;;;;;;;249.90;102.78;;;;;;;5.26;64.94;102394.63;5161043;56;1142830;-75
2021/03/02 21:09:38;;;;;;;215.80;73.87;;;;;;;5.11;64.20;102398.95;5161351;56;1142932;-75
2021/03/02 21:14:43;;;;;;;288.07;82.50;;;;;;;4.73;63.88;102394.66;5178285;55;1141002;-75
2021/03/02 21:19:49;;;;;;;142.30;62.20;;;;;;;4.55;64.75;102393.31;5239566;55;1142597;-77
2021/03/02 21:24:55;;;;;;;66.87;28.93;;;;;;;4.64;65.67;102401.40;5239991;55;1140612;-77
2021/03/02 21:30:01;;;;;;;89.67;38.47;;;;;;;4.51;65.52;102395.58;5239989;55;1138613;-77
2021/03/02 21:35:09;;;;;;;106.27;42.53;;;;;;;4.47;65.81;102396.98;5240160;55;1138557;-75
2021/03/02 21:40:15;;;;;;;146.30;57.43;;;;;;;4.41;66.17;102397.14;5239613;55;1140487;-76
2021/03/02 21:45:21;;;;;;;155.63;63.97;;;;;;;4.41;66.12;102394.52;5215858;55;1141058;-77
2021/03/02 21:50:26;;;;;;;229.30;86.50;;;;;;;4.29;65.75;102396.07;5107793;56;1140919;-77
2021/03/02 21:55:32;;;;;;;190.27;82.23;;;;;;;4.29;65.90;102396.07;5076767;57;1140604;-78
2021/03/02 22:00:37;;;;;;;216.63;82.70;;;;;;;4.23;65.92;102395.77;5138522;55;1140597;-82
2021/03/02 22:05:43;;;;;;;242.50;92.97;;;;;;;4.18;65.76;102397.62;5162800;55;1141044;-78
2021/03/02 22:10:48;;;;;;;189.83;73.73;;;;;;;4.09;66.12;102401.75;5124827;55;1140912;-77
2021/03/02 22:15:54;;;;;;;152.03;58.43;;;;;;;4.06;66.33;102392.64;5133088;55;1141034;-79
2021/03/02 22:21:00;;;;;;;155.80;61.30;;;;;;;3.86;65.58;102388.66;5150079;55;1141491;-78
2021/03/02 22:26:06;;;;;;;172.10;66.63;;;;;;;3.82;66.33;102376.52;5124600;55;1140732;-78
2021/03/02 22:31:12;;;;;;;158.23;64.17;;;;;;;3.84;66.39;102369.51;5089894;56;1140682;-77
2021/03/02 22:36:18;;;;;;;154.50;58.77;;;;;;;3.82;66.44;102365.19;5136780;56;1140536;-79
2021/03/02 22:41:25;;;;;;;139.77;56.37;;;;;;;3.72;66.13;102354.06;5139284;55;1141235;-78
2021/03/02 22:46:30;;;;;;;128.73;54.73;;;;;;;3.64;66.63;102357.28;5127914;55;1140737;-77
2021/03/02 22:51:36;;;;;;;153.20;62.40;;;;;;;3.58;66.40;102354.78;5151184;55;1140888;-79
2021/03/02 22:56:42;;;;;;;212.30;80.67;;;;;;;3.52;66.57;102354.44;5100226;55;1141137;-79
2021/03/02 23:01:47;;;;;;;189.80;73.33;;;;;;;3.56;66.72;102353.08;5090959;56;1140915;-77
2021/03/02 23:06:53;;;;;;;160.43;62.03;;;;;;;3.41;65.67;102355.53;5090648;56;1140946;-77
2021/03/02 23:11:58;;;;;;;200.13;74.87;;;;;;;2.72;66.04;102350.66;5090953;56;1141032;-79
2021/03/02 23:17:04;;;;;;;144.15;55.35;;;;;;;2.72;66.04;102350.66;5090737;56;1140997;-79
2021/03/02 23:22:10;;;;;;;145.20;59.40;;;;;;;2.59;66.49;102356.95;5090908;56;1141383;-79
2021/03/02 23:27:18;;;;;;;181.37;69.67;;;;;;;2.70;67.24;102351.98;5085710;56;1141451;-80
2021/03/02 23:32:23;;;;;;;177.70;66.97;;;;;;;2.71;67.53;102343.25;5076029;56;1140993;-78
2021/03/02 23:37:34;;;;;;;161.80;66.13;;;;;;;2.78;67.59;102352.70;5078777;56;1141147;-78
2021/03/02 23:42:45;;;;;;;174.47;69.47;;;;;;;2.82;67.14;102351.78;5097716;56;1141264;-79
2021/03/02 23:47:51;;;;;;;164.90;68.40;;;;;;;2.78;67.13;102352.70;5126607;56;1141226;-78
2021/03/02 23:52:56;;;;;;;197.28;75.87;;;;;;;2.80;67.46;102348.32;5094108;56;1140561;-79
2021/03/02 23:58:02;;;;;;;184.07;69.77;;;;;;;2.83;67.40;102353.95;5107131;56;1140720;-79
